KSBN/SBN METAR and TAF weather

Enter ICAO airport designator
Station Type Date Time Source
KSBN METAR 2018/12/11 17:54 UTC NOAA

KSBN 111754Z 29006KT 7SM SCT018 01/M04 A3002 RMK AO2 SLP177 T00061044 10006 21061 56013


Station Type Date Time Source
KSBN Decoded METAR 2018/12/11 17:54 UTC NOAA

SOUTH BEND REGIONAL AIRPORT, IN, United States (KSBN) 41-42N 086-19W 237M
Dec 11, 2018 - 12:54 PM EST / 2018.12.11 1754 UTC
Wind: from the WNW (290 degrees) at 7 MPH (6 KT):0
Visibility: 7 mile(s):0
Sky conditions: partly cloudy
Temperature: 33.1 F (0.6 C)
Windchill: 26 F (-3 C):1
Dew Point: 24.1 F (-4.4 C)
Relative Humidity: 69%
Pressure (altimeter): 30.02 in. Hg (1016 hPa)
Pressure tendency: 0.04 inches (1.3 hPa) lower than three hours ago
ob: KSBN 111754Z 29006KT 7SM SCT018 01/M04 A3002 RMK AO2 SLP177 T00061044 10006 21061 56013
cycle: 18

Station Type Date Time Source
KSBN TAF 2018/12/11 18:22 UTC NOAA

TAF KSBN 111720Z 1118/1218 26009KT P6SM OVC015
FM120200 13005KT P6SM BKN210
FM121200 16011KT 4SM -RASN OVC012


Example: see airport list